createdAt,value
2022-11-06T00:00:51.331Z,98.5
2022-11-06T00:02:52.438Z,98.52
2022-11-06T00:04:53.971Z,98.59
2022-11-06T00:06:55.053Z,98.62
2022-11-06T00:08:56.940Z,98.59
2022-11-06T00:10:58.417Z,98.4
2022-11-06T00:12:59.827Z,98.49
2022-11-06T00:15:01.083Z,98.58
2022-11-06T00:17:03.023Z,98.71
2022-11-06T00:19:04.415Z,98.75
2022-11-06T00:21:06.252Z,98.85
2022-11-06T00:23:07.657Z,98.88
2022-11-06T00:25:09.540Z,98.99
2022-11-06T00:27:11.376Z,99.03
2022-11-06T00:29:13.010Z,99.01
2022-11-06T00:31:14.901Z,98.97
2022-11-06T00:33:16.391Z,98.93
2022-11-06T00:35:17.840Z,98.86
2022-11-06T00:37:19.737Z,98.86
2022-11-06T00:39:21.065Z,98.85
2022-11-06T00:43:23.600Z,98.73
2022-11-06T00:45:25.028Z,98.8
2022-11-06T00:47:26.390Z,98.86
2022-11-06T00:49:27.934Z,98.84
2022-11-06T00:53:30.370Z,99.07
2022-11-06T00:55:32.314Z,99.21
2022-11-06T00:57:33.270Z,99.25
2022-11-06T00:59:34.876Z,99.25
2022-11-06T01:01:36.790Z,99.16
2022-11-06T01:03:38.592Z,99.13
2022-11-06T01:05:39.539Z,99.08
2022-11-06T01:07:41.301Z,99.04
2022-11-06T01:09:42.697Z,98.63
2022-11-06T01:12:10.864Z,98.47
2022-11-06T01:13:45.122Z,98.67
2022-11-06T01:15:46.533Z,98.92
2022-11-06T01:17:47.614Z,98.98
2022-11-06T01:19:49.579Z,98.83
2022-11-06T01:21:51.226Z,98.76
2022-11-06T01:23:52.245Z,98.93
2022-11-06T01:25:53.348Z,99.08
2022-11-06T01:29:56.291Z,99.14
2022-11-06T01:31:58.083Z,99.09
2022-11-06T01:33:59.385Z,99.03
2022-11-06T01:36:01.246Z,98.98
2022-11-06T01:38:02.980Z,98.94
2022-11-06T01:40:04.747Z,98.83
2022-11-06T01:42:06.147Z,98.82
2022-11-06T01:44:09.649Z,98.99
2022-11-06T01:46:09.793Z,98.95
2022-11-06T01:48:11.361Z,98.87
2022-11-06T01:50:12.513Z,98.79
2022-11-06T01:52:14.401Z,98.79
2022-11-06T01:54:15.702Z,98.81
2022-11-06T01:58:19.215Z,98.92
2022-11-06T02:00:20.689Z,98.98
2022-11-06T02:02:22.518Z,98.79
2022-11-06T02:04:23.610Z,98.74
2022-11-06T02:08:26.216Z,98.77
2022-11-06T02:10:27.921Z,98.79
2022-11-06T02:12:29.563Z,98.85
2022-11-06T02:14:31.290Z,98.96
2022-11-06T02:16:32.919Z,99.01
2022-11-06T02:18:34.267Z,99.01
2022-11-06T02:20:35.279Z,99.04
2022-11-06T02:22:36.430Z,99.02
2022-11-06T02:24:37.855Z,98.94
2022-11-06T02:26:38.919Z,98.83
2022-11-06T02:28:40.888Z,98.87
2022-11-06T02:30:42.159Z,98.93
2022-11-06T02:32:43.840Z,99.05
2022-11-06T02:34:45.029Z,99.11
2022-11-06T02:36:46.162Z,99.06
2022-11-06T02:38:47.841Z,98.92
2022-11-06T02:40:48.898Z,98.81
2022-11-06T02:42:50.707Z,98.89
2022-11-06T02:44:51.758Z,99
2022-11-06T02:46:53.154Z,99.02
2022-11-06T02:50:56.296Z,99
2022-11-06T02:52:57.709Z,99.01
2022-11-06T02:54:59.689Z,99.05
2022-11-06T02:57:00.788Z,99.05
2022-11-06T02:59:02.038Z,99.1
2022-11-06T03:01:03.263Z,99.11
2022-11-06T03:03:05.178Z,99.16
2022-11-06T03:05:06.125Z,99.15
2022-11-06T03:07:07.551Z,99.12
2022-11-06T03:09:08.991Z,99.13
2022-11-06T03:11:10.581Z,99.14
2022-11-06T03:13:12.463Z,99.17
2022-11-06T03:15:13.641Z,99.17
2022-11-06T03:17:14.908Z,99.16
2022-11-06T03:19:15.983Z,99.13
2022-11-06T03:23:19.192Z,99.16
2022-11-06T03:25:20.897Z,99.2
2022-11-06T03:27:23.014Z,99.22
2022-11-06T03:29:24.935Z,99.24
2022-11-06T03:33:28.468Z,99.26
2022-11-06T03:35:29.961Z,99.27
2022-11-06T03:37:31.432Z,99.27
2022-11-06T03:39:33.393Z,99.27
2022-11-06T03:41:34.597Z,99.27
2022-11-06T03:43:35.899Z,99.25
2022-11-06T03:45:37.095Z,99.24
2022-11-06T03:47:38.734Z,99.23
2022-11-06T03:49:40.746Z,99.23
2022-11-06T03:51:42.415Z,99.27
2022-11-06T03:53:44.331Z,99.3
2022-11-06T03:55:45.602Z,99.29
2022-11-06T03:57:46.625Z,99.31
2022-11-06T03:59:47.669Z,99.31
2022-11-06T04:01:49.485Z,99.32
2022-11-06T04:05:51.979Z,99.36
2022-11-06T04:07:53.934Z,99.38
2022-11-06T04:09:55.211Z,99.4
2022-11-06T04:11:56.408Z,99.4
2022-11-06T04:15:59.815Z,99.42
2022-11-06T04:18:01.049Z,99.42
2022-11-06T04:20:02.367Z,99.44
2022-11-06T04:22:03.893Z,99.41
2022-11-06T04:24:05.273Z,99.4
2022-11-06T04:26:06.479Z,99.42
2022-11-06T04:28:08.442Z,99.44
2022-11-06T04:30:09.704Z,99.43
2022-11-06T04:32:11.420Z,99.44
2022-11-06T04:34:13.250Z,99.44
2022-11-06T04:36:14.987Z,99.42
2022-11-06T04:38:16.581Z,99.41
2022-11-06T04:40:17.511Z,99.4
2022-11-06T04:42:18.590Z,99.39
2022-11-06T04:44:20.357Z,99.41
2022-11-06T04:46:22.163Z,99.41
2022-11-06T04:48:24.052Z,99.41
2022-11-06T04:50:25.584Z,99.39
2022-11-06T04:52:27.371Z,99.4
2022-11-06T04:54:28.655Z,99.38
2022-11-06T04:56:32.978Z,99.4
2022-11-06T04:58:32.311Z,99.43
2022-11-06T05:00:34.033Z,99.41
2022-11-06T05:03:19.788Z,99.4
2022-11-06T05:05:21.817Z,99.42
2022-11-06T05:09:25.399Z,99.39
2022-11-06T05:11:26.611Z,99.38
2022-11-06T05:13:28.176Z,99.4
2022-11-06T05:15:30.161Z,99.38
2022-11-06T05:17:35.397Z,99.38
2022-11-06T05:19:33.415Z,99.39
2022-11-06T05:21:34.588Z,99.36
2022-11-06T05:23:36.227Z,99.32
2022-11-06T05:25:37.680Z,99.35
2022-11-06T05:27:39.420Z,99.33
2022-11-06T05:29:41.348Z,99.32
2022-11-06T05:31:42.962Z,99.31
2022-11-06T05:33:44.086Z,99.31
2022-11-06T05:35:45.202Z,99.31
2022-11-06T05:37:46.382Z,99.32
2022-11-06T05:41:50.267Z,99.29
2022-11-06T05:43:52.239Z,99.27
2022-11-06T05:45:53.824Z,99.26
2022-11-06T05:47:55.117Z,99.28
2022-11-06T05:51:58.231Z,99.31
2022-11-06T05:54:00.202Z,99.34
2022-11-06T05:56:02.087Z,99.32
2022-11-06T05:58:03.583Z,99.28
2022-11-06T06:00:05.492Z,99.3
2022-11-06T06:02:07.520Z,99.3
2022-11-06T06:04:09.145Z,99.33
2022-11-06T06:06:10.900Z,99.34
2022-11-06T06:08:12.590Z,99.37
2022-11-06T06:10:13.447Z,99.38
2022-11-06T06:12:14.834Z,99.4
2022-11-06T06:14:16.093Z,99.41
2022-11-06T06:16:18.107Z,99.39
2022-11-06T06:18:19.310Z,99.36
2022-11-06T06:20:20.977Z,99.39
2022-11-06T06:24:24.464Z,99.42
2022-11-06T06:26:25.683Z,99.43
2022-11-06T06:28:26.915Z,99.44
2022-11-06T06:30:28.600Z,99.42
2022-11-06T06:34:31.416Z,99.42
2022-11-06T06:36:33.374Z,99.41
2022-11-06T06:38:35.139Z,99.43
2022-11-06T06:40:36.991Z,99.43
2022-11-06T06:42:38.771Z,99.4
2022-11-06T06:44:40.232Z,99.43
2022-11-06T06:46:41.913Z,99.42
2022-11-06T06:48:43.756Z,99.4
2022-11-06T06:50:45.035Z,99.42
2022-11-06T06:52:46.514Z,99.43
2022-11-06T06:54:48.328Z,99.41
2022-11-06T06:56:49.680Z,99.43
2022-11-06T06:58:51.490Z,99.4
2022-11-06T07:00:52.865Z,99.38
2022-11-06T07:02:54.088Z,99.4
2022-11-06T07:06:57.016Z,99.36
2022-11-06T07:08:58.192Z,99.36
2022-11-06T07:10:59.689Z,99.36
2022-11-06T07:13:00.776Z,99.35
2022-11-06T07:17:03.516Z,99.39
2022-11-06T07:19:04.685Z,99.41
2022-11-06T07:21:05.724Z,99.43
2022-11-06T07:23:06.905Z,99.45
2022-11-06T07:25:08.140Z,99.46
2022-11-06T07:27:09.879Z,99.45
2022-11-06T07:29:11.304Z,99.45
2022-11-06T07:31:12.977Z,99.35
2022-11-06T07:33:14.980Z,99.46
2022-11-06T07:35:16.365Z,99.47
2022-11-06T07:37:18.925Z,99.51
2022-11-06T07:39:20.046Z,99.51
2022-11-06T07:41:21.483Z,99.54
2022-11-06T07:43:22.716Z,99.51
2022-11-06T07:45:23.935Z,99.64
2022-11-06T07:49:36.111Z,99.51
2022-11-06T07:51:28.903Z,99.57
2022-11-06T07:53:30.661Z,99.53
2022-11-06T07:55:31.812Z,99.52
2022-11-06T07:59:34.824Z,99.51
2022-11-06T08:01:36.080Z,99.46
2022-11-06T08:03:37.332Z,99.59
2022-11-06T08:05:38.610Z,99.43
2022-11-06T08:07:41.266Z,99.43
2022-11-06T08:09:43.191Z,99.51
2022-11-06T08:11:45.419Z,99.6
2022-11-06T08:13:46.741Z,99.54
2022-11-06T08:15:47.758Z,99.56
2022-11-06T08:17:49.730Z,99.59
2022-11-06T08:19:50.797Z,99.54
2022-11-06T08:21:52.168Z,99.55
2022-11-06T08:23:52.956Z,99.45
2022-11-06T08:25:54.677Z,99.42
2022-11-06T08:27:56.046Z,99.42
2022-11-06T08:31:59.156Z,99.44
2022-11-06T08:34:00.571Z,99.43
2022-11-06T08:36:01.511Z,99.26
2022-11-06T08:38:02.465Z,99.11
2022-11-06T08:42:05.553Z,99.07
2022-11-06T08:44:07.369Z,99.16
2022-11-06T08:46:08.344Z,99.33
2022-11-06T08:48:10.164Z,99.24
2022-11-06T08:50:11.569Z,99.29
2022-11-06T08:52:13.512Z,99.41
2022-11-06T08:54:14.472Z,99.43
2022-11-06T08:56:15.930Z,99.41
2022-11-06T08:58:17.647Z,99.35
2022-11-06T09:00:18.755Z,99.21
2022-11-06T09:02:20.339Z,99.2
2022-11-06T09:04:21.203Z,99.31
2022-11-06T09:06:22.846Z,99.14
2022-11-06T09:08:24.606Z,99.27
2022-11-06T09:10:25.870Z,99.32
2022-11-06T09:12:26.968Z,99.34
2022-11-06T09:14:27.970Z,99.32
2022-11-06T09:16:29.085Z,99.24
2022-11-06T09:18:30.702Z,99.28
2022-11-06T09:22:33.188Z,99.17
2022-11-06T09:24:57.505Z,98.94
2022-11-06T09:26:35.829Z,98.55
2022-11-06T09:28:37.277Z,98.59
2022-11-06T09:30:38.448Z,98.47
2022-11-06T09:32:39.992Z,97.83
2022-11-06T09:34:41.432Z,97.19
2022-11-06T09:36:42.441Z,93.68
2022-11-06T09:38:44.193Z,94.19
2022-11-06T09:40:45.293Z,94.37
2022-11-06T09:42:46.442Z,92.24
2022-11-06T09:44:48.317Z,90.89
2022-11-06T09:46:50.132Z,90.31
2022-11-06T09:48:51.489Z,88.6
2022-11-06T09:50:53.169Z,87.27
2022-11-06T09:52:54.715Z,85.94
2022-11-06T09:54:56.354Z,86.48
2022-11-06T09:56:57.418Z,85.76
2022-11-06T09:58:58.676Z,86.67
2022-11-06T10:01:00.394Z,84.19
2022-11-06T10:03:01.481Z,85.88
2022-11-06T10:05:03.205Z,85.68
2022-11-06T10:07:04.753Z,84.27
2022-11-06T10:09:06.235Z,81.48
2022-11-06T10:11:07.883Z,83.04
2022-11-06T10:13:10.745Z,82.12
2022-11-06T10:15:10.559Z,82.87
2022-11-06T10:17:12.280Z,81.73
2022-11-06T10:19:13.206Z,82.31
2022-11-06T10:23:15.808Z,80.4
2022-11-06T10:25:16.975Z,80.77
2022-11-06T10:27:18.674Z,80.8
2022-11-06T10:29:20.309Z,80.89
2022-11-06T10:31:21.859Z,80.63
2022-11-06T10:33:22.938Z,79.26
2022-11-06T10:35:24.741Z,77.78
2022-11-06T10:37:25.809Z,77.33
2022-11-06T10:39:26.802Z,76.16
2022-11-06T10:41:28.487Z,77.39
2022-11-06T10:43:29.675Z,75.94
2022-11-06T10:45:31.172Z,76.31
2022-11-06T10:47:32.719Z,75.52
2022-11-06T10:49:33.880Z,77.65
2022-11-06T10:51:35.346Z,77.12
2022-11-06T10:55:38.704Z,76.87
2022-11-06T10:57:40.517Z,76.15
2022-11-06T10:59:41.723Z,76.77
2022-11-06T11:01:43.205Z,79.07
2022-11-06T11:05:45.703Z,77.4
2022-11-06T11:07:46.887Z,79.41
2022-11-06T11:09:48.173Z,80.97
2022-11-06T11:11:49.832Z,78.76
2022-11-06T11:13:51.566Z,80.66
2022-11-06T11:15:53.289Z,80.64
2022-11-06T11:17:55.031Z,79.79
2022-11-06T11:19:56.257Z,80.08
2022-11-06T11:21:58.037Z,78.4
2022-11-06T11:23:59.813Z,79.09
2022-11-06T11:26:01.431Z,79.09
2022-11-06T11:28:04.909Z,82.62
2022-11-06T11:30:04.663Z,80.75
2022-11-06T11:32:06.454Z,80.18
2022-11-06T11:34:07.540Z,82.96
2022-11-06T11:38:10.377Z,80.5
2022-11-06T11:40:13.479Z,80.48
2022-11-06T11:42:12.770Z,81.22
2022-11-06T11:44:14.639Z,81.06
2022-11-06T11:48:18.010Z,81.78
2022-11-06T11:49:01.813Z,80.81
2022-11-06T11:51:02.824Z,82.69
2022-11-06T11:53:09.819Z,82.18
2022-11-06T11:55:06.014Z,81.45
2022-11-06T11:57:07.883Z,81.59
2022-11-06T11:59:09.422Z,80.79
2022-11-06T12:01:10.850Z,80.19
2022-11-06T12:03:11.809Z,80.96
2022-11-06T12:05:12.741Z,80.14
2022-11-06T12:07:13.760Z,80.39
2022-11-06T12:09:14.972Z,80.27
2022-11-06T12:11:15.919Z,80.03
2022-11-06T12:13:17.075Z,81.73
2022-11-06T12:15:18.093Z,81.04
2022-11-06T12:17:19.873Z,82.21
2022-11-06T12:19:21.043Z,82.32
2022-11-06T12:21:22.388Z,81.33
2022-11-06T12:23:23.580Z,82.11
2022-11-06T12:25:25.182Z,83.02
2022-11-06T12:27:26.776Z,81.33
2022-11-06T12:29:27.784Z,80.71
2022-11-06T12:31:28.781Z,82.87
2022-11-06T12:33:59.890Z,82.54
2022-11-06T12:35:32.187Z,82.68
2022-11-06T12:37:33.475Z,81.49
2022-11-06T12:41:36.715Z,83.25
2022-11-06T12:43:38.434Z,82.34
2022-11-06T12:45:40.043Z,81.97
2022-11-06T12:47:41.504Z,81.83
2022-11-06T12:49:42.935Z,81.86
2022-11-06T12:51:44.789Z,79.77
2022-11-06T12:53:46.536Z,79.73
2022-11-06T12:55:47.817Z,81.88
2022-11-06T12:57:49.702Z,80.86
2022-11-06T12:59:51.606Z,81.24
2022-11-06T13:01:53.381Z,80.42
2022-11-06T13:03:54.311Z,81.52
2022-11-06T13:05:55.632Z,80.81
2022-11-06T13:07:57.258Z,81.91
2022-11-06T13:09:58.667Z,82.09
2022-11-06T13:11:59.670Z,82.07
2022-11-06T13:14:00.732Z,82.69
2022-11-06T13:16:02.275Z,81.83
2022-11-06T13:18:03.547Z,82.74
2022-11-06T13:20:05.096Z,82.63
2022-11-06T13:24:08.764Z,82.7
2022-11-06T13:26:10.526Z,81.39
2022-11-06T13:28:12.108Z,82.12
2022-11-06T13:30:13.496Z,82.82
2022-11-06T13:32:15.241Z,81.88
2022-11-06T13:34:16.709Z,81.31
2022-11-06T13:36:18.604Z,81.45
2022-11-06T13:38:20.204Z,81.82
2022-11-06T13:40:21.193Z,82.6
2022-11-06T13:42:22.537Z,82.39
2022-11-06T13:44:23.793Z,82.4
2022-11-06T13:46:25.380Z,84.13
2022-11-06T13:48:27.199Z,82.91
2022-11-06T13:50:28.918Z,82.63
2022-11-06T13:52:30.548Z,83.44
2022-11-06T13:54:31.709Z,82.55
2022-11-06T13:56:33.053Z,82.24
2022-11-06T13:58:34.313Z,83.38
2022-11-06T14:00:36.015Z,83.06
2022-11-06T14:02:37.258Z,82.53
2022-11-06T14:06:39.999Z,83.01
2022-11-06T14:08:41.619Z,84
2022-11-06T14:10:42.755Z,82.97
2022-11-06T14:12:43.784Z,83.64
2022-11-06T14:14:45.133Z,83.65
2022-11-06T14:16:46.478Z,83.93
2022-11-06T14:18:48.273Z,84.28
2022-11-06T14:20:49.481Z,83.36
2022-11-06T14:22:50.940Z,84.15
2022-11-06T14:24:55.738Z,84.96
2022-11-06T14:26:54.061Z,83.93
2022-11-06T14:28:55.895Z,84.59
2022-11-06T14:31:12.601Z,85.04
2022-11-06T14:32:58.799Z,84.63
2022-11-06T14:35:00.723Z,84.89
2022-11-06T14:39:04.284Z,85.68
2022-11-06T14:41:05.408Z,85.37
2022-11-06T14:43:06.648Z,85.77
2022-11-06T14:45:07.987Z,86.06
2022-11-06T14:49:10.077Z,85.87
2022-11-06T14:51:11.769Z,85.14
2022-11-06T14:53:13.382Z,85.61
2022-11-06T14:55:15.069Z,85.56
2022-11-06T14:57:16.769Z,85.52
2022-11-06T14:59:18.360Z,85.12
2022-11-06T15:01:19.787Z,85.93
2022-11-06T15:03:21.288Z,86.07
2022-11-06T15:05:22.349Z,86.4
2022-11-06T15:07:33.680Z,86.4
2022-11-06T15:09:25.229Z,86.52
2022-11-06T15:11:26.661Z,86.65
2022-11-06T15:13:27.676Z,86.84
2022-11-06T15:15:28.734Z,87.29
2022-11-06T15:17:29.772Z,87.13
2022-11-06T15:19:31.492Z,86.47
2022-11-06T15:21:33.379Z,86.85
2022-11-06T15:23:34.339Z,86.82
2022-11-06T15:25:35.443Z,86.89
2022-11-06T15:27:41.871Z,87.16
2022-11-06T15:29:39.215Z,87.1
2022-11-06T15:31:40.274Z,87.21
2022-11-06T15:33:42.225Z,87.68
2022-11-06T15:37:45.267Z,87.92
2022-11-06T15:39:46.687Z,87.98
2022-11-06T15:41:48.246Z,88.2
2022-11-06T15:43:49.598Z,87.97
2022-11-06T15:47:52.366Z,88.6
2022-11-06T15:49:53.502Z,88.55
2022-11-06T15:51:54.956Z,88.39
2022-11-06T15:53:56.565Z,88.92
2022-11-06T15:55:57.600Z,89.77
2022-11-06T15:57:58.865Z,89.15
2022-11-06T16:00:00.683Z,88.53
2022-11-06T16:02:02.198Z,88.56
2022-11-06T16:04:04.029Z,88.57
2022-11-06T16:06:05.723Z,88.41
2022-11-06T16:08:07.102Z,88.77
2022-11-06T16:10:08.271Z,88.7
2022-11-06T16:12:10.125Z,88.75
2022-11-06T16:14:11.164Z,89.2
2022-11-06T16:16:13.089Z,89.36
2022-11-06T16:18:14.712Z,90.87
2022-11-06T16:20:15.906Z,90.69
2022-11-06T16:22:17.336Z,90.58
2022-11-06T16:24:18.604Z,90.42
2022-11-06T16:26:20.532Z,89.17
2022-11-06T16:30:25.220Z,90.23
2022-11-06T16:32:25.171Z,91.51
2022-11-06T16:34:26.854Z,91.45
2022-11-06T16:36:28.651Z,91.26
2022-11-06T16:38:40.160Z,90.64
2022-11-06T16:40:31.690Z,91.05
2022-11-06T16:42:33.345Z,90.29
2022-11-06T16:46:36.261Z,89.76
2022-11-06T16:48:37.614Z,89.75
2022-11-06T16:50:39.043Z,90.27
2022-11-06T16:52:40.523Z,90.05
2022-11-06T16:54:41.578Z,89.54
2022-11-06T16:56:42.699Z,89.13
2022-11-06T16:58:44.471Z,89.39
2022-11-06T17:02:47.490Z,89.64
2022-11-06T17:04:49.262Z,89.17
2022-11-06T17:06:50.538Z,88.88
2022-11-06T17:08:52.219Z,88.51
2022-11-06T17:12:54.800Z,88.53
2022-11-06T17:14:56.585Z,88.85
2022-11-06T17:16:57.656Z,88.76
2022-11-06T17:18:58.943Z,88.45
2022-11-06T17:21:00.582Z,88.48
2022-11-06T17:23:02.396Z,88.41
2022-11-06T17:25:03.430Z,88.76
2022-11-06T17:27:04.542Z,88.59
2022-11-06T17:29:05.754Z,88.57
2022-11-06T17:31:06.942Z,88.41
2022-11-06T17:33:08.591Z,88.38
2022-11-06T17:35:10.297Z,88.04
2022-11-06T17:37:11.916Z,88.55
2022-11-06T17:39:13.663Z,88.91
2022-11-06T17:41:15.482Z,88.51
2022-11-06T17:45:18.107Z,88.33
2022-11-06T17:47:19.383Z,88.17
2022-11-06T17:49:21.039Z,88.44
2022-11-06T17:51:22.388Z,88.45
2022-11-06T17:55:26.094Z,88.2
2022-11-06T17:57:27.154Z,88.47
2022-11-06T17:59:29.067Z,88.43
2022-11-06T18:01:30.750Z,88.38
2022-11-06T18:03:36.249Z,88.34
2022-11-06T18:05:33.255Z,88.04
2022-11-06T18:07:34.786Z,88.19
2022-11-06T18:09:36.212Z,88.16
2022-11-06T18:11:37.441Z,87.98
2022-11-06T18:13:38.428Z,88.04
2022-11-06T18:15:39.764Z,88.32
2022-11-06T18:17:40.777Z,88.55
2022-11-06T18:19:41.898Z,88.53
2022-11-06T18:21:43.623Z,88.34
2022-11-06T18:23:45.311Z,88.23
2022-11-06T18:25:46.995Z,87.97
2022-11-06T18:27:48.337Z,88.18
2022-11-06T18:29:49.540Z,88.02
2022-11-06T18:31:50.932Z,87.94
2022-11-06T18:33:52.086Z,87.83
2022-11-06T18:36:37.294Z,87.97
2022-11-06T18:38:38.636Z,87.58
2022-11-06T18:40:40.570Z,87.77
2022-11-06T18:42:42.122Z,87.66
2022-11-06T18:44:51.560Z,87.46
2022-11-06T18:48:46.241Z,87.81
2022-11-06T18:50:47.557Z,87.77
2022-11-06T18:52:57.716Z,87.93
2022-11-06T18:54:51.130Z,88.13
2022-11-06T18:56:52.987Z,87.94
2022-11-06T18:58:53.929Z,88.12
2022-11-06T19:00:59.053Z,88
2022-11-06T19:02:56.571Z,88.07
2022-11-06T19:04:58.397Z,88.57
2022-11-06T19:06:59.894Z,88.53
2022-11-06T19:09:01.176Z,88.2
2022-11-06T19:11:02.444Z,87.93
2022-11-06T19:13:03.855Z,87.81
2022-11-06T19:15:05.236Z,88.26
2022-11-06T19:17:06.848Z,88.22
2022-11-06T19:19:07.976Z,88.49
2022-11-06T19:21:09.326Z,88.32
2022-11-06T19:23:10.558Z,88.47
2022-11-06T19:25:11.737Z,88.7
2022-11-06T19:27:13.345Z,88.43
2022-11-06T19:29:14.716Z,88
2022-11-06T19:31:16.335Z,88.17
2022-11-06T19:33:17.558Z,88.15
2022-11-06T19:37:20.418Z,87.98
2022-11-06T19:39:22.379Z,88.1
2022-11-06T19:41:23.659Z,88.71
2022-11-06T19:43:24.789Z,88.96
2022-11-06T19:45:26.686Z,89.03
2022-11-06T19:47:28.097Z,88.91
2022-11-06T19:49:29.884Z,88.52
2022-11-06T19:51:31.244Z,88.49
2022-11-06T19:53:32.490Z,88.83
2022-11-06T19:55:33.500Z,88.6
2022-11-06T19:57:35.266Z,88.61
2022-11-06T19:59:36.640Z,88.43
2022-11-06T20:01:38.028Z,88.6
2022-11-06T20:03:39.703Z,88.08
2022-11-06T20:05:40.862Z,87.66
2022-11-06T20:09:43.726Z,87.79
2022-11-06T20:11:45.329Z,87.91
2022-11-06T20:13:46.597Z,87.36
2022-11-06T20:15:47.765Z,87.36
2022-11-06T20:19:51.008Z,87.03
2022-11-06T20:21:52.194Z,87.13
2022-11-06T20:23:54.010Z,86.56
2022-11-06T20:25:55.468Z,86.81
2022-11-06T20:27:56.663Z,86.8
2022-11-06T20:29:58.228Z,86.89
2022-11-06T20:31:59.627Z,86.64
2022-11-06T20:34:00.705Z,86.66
2022-11-06T20:36:02.234Z,87.11
2022-11-06T20:38:03.563Z,86.67
2022-11-06T20:40:04.563Z,86.55
2022-11-06T20:42:05.831Z,86.17
2022-11-06T20:44:07.588Z,85.93
2022-11-06T20:46:08.907Z,85.53
2022-11-06T20:48:10.181Z,85.75
2022-11-06T20:50:11.385Z,85.91
2022-11-06T20:52:14.296Z,85.78
2022-11-06T20:54:14.639Z,85.65
2022-11-06T20:56:16.057Z,86.01
2022-11-06T20:58:17.640Z,86.17
2022-11-06T21:00:19.212Z,86.43
2022-11-06T21:02:21.048Z,86.36
2022-11-06T21:04:22.257Z,86.32
2022-11-06T21:08:24.725Z,85.82
2022-11-06T21:10:25.872Z,86.1
2022-11-06T21:12:27.195Z,86.28
2022-11-06T21:14:28.186Z,86.11
2022-11-06T21:18:30.896Z,85.95
2022-11-06T21:20:32.223Z,85.29
2022-11-06T21:22:33.636Z,85.7
2022-11-06T21:24:34.848Z,85.48
2022-11-06T21:26:35.790Z,85.96
2022-11-06T21:28:37.010Z,86.01
2022-11-06T21:30:38.799Z,85.88
2022-11-06T21:32:40.183Z,85.76
2022-11-06T21:34:42.081Z,85.47
2022-11-06T21:36:43.209Z,84.84
2022-11-06T21:38:45.061Z,85.21
2022-11-06T21:40:46.404Z,84.4
2022-11-06T21:42:47.898Z,84.12
2022-11-06T21:44:48.885Z,83.8
2022-11-06T21:46:50.780Z,84.3
2022-11-06T21:48:52.332Z,84.55
2022-11-06T21:50:53.730Z,84.26
2022-11-06T21:52:55.293Z,84.38
2022-11-06T21:54:57.271Z,84.52
2022-11-06T21:56:58.616Z,84.06
2022-11-06T22:01:01.243Z,84.37
2022-11-06T22:03:02.509Z,84.6
2022-11-06T22:05:03.929Z,84.12
2022-11-06T22:07:05.076Z,84.3
2022-11-06T22:09:06.444Z,84.29
2022-11-06T22:11:08.102Z,84.55
2022-11-06T22:13:09.661Z,84.37
2022-11-06T22:15:10.709Z,84.27
2022-11-06T22:17:12.370Z,84.61
2022-11-06T22:19:14.253Z,84.81
2022-11-06T22:21:15.521Z,84.83
2022-11-06T22:23:17.348Z,84.75
2022-11-06T22:25:18.953Z,84.78
2022-11-06T22:27:20.016Z,84.7
2022-11-06T22:29:21.806Z,84.87
2022-11-06T22:33:24.915Z,84.93
2022-11-06T22:35:26.233Z,84.95
2022-11-06T22:37:27.372Z,84.97
2022-11-06T22:39:28.661Z,85.03
2022-11-06T22:43:30.776Z,83.57
2022-11-06T22:45:32.683Z,83.98
2022-11-06T22:47:34.141Z,84.59
2022-11-06T22:49:35.356Z,84.75
2022-11-06T22:51:36.680Z,84.5
2022-11-06T22:53:37.892Z,84.38
2022-11-06T22:55:39.395Z,84.07
2022-11-06T22:57:41.032Z,84.06
2022-11-06T22:59:42.116Z,84.23
2022-11-06T23:01:43.799Z,84.17
2022-11-06T23:03:45.235Z,83.62
2022-11-06T23:05:46.983Z,83.32
2022-11-06T23:07:48.265Z,83.21
2022-11-06T23:09:49.689Z,83.58
2022-11-06T23:11:51.557Z,83.71
2022-11-06T23:13:53.045Z,83.36
2022-11-06T23:15:54.670Z,82.7
2022-11-06T23:17:56.495Z,82.2
2022-11-06T23:19:57.759Z,80.63
2022-11-06T23:21:58.942Z,79.33
2022-11-06T23:24:00.574Z,78.53
2022-11-06T23:26:02.169Z,79.96
2022-11-06T23:28:03.337Z,79.17
2022-11-06T23:32:06.370Z,78.1
2022-11-06T23:34:07.531Z,77.72
2022-11-06T23:36:09.462Z,77.54
2022-11-06T23:38:10.757Z,76.96
2022-11-06T23:42:14.246Z,77.23
2022-11-06T23:44:16.003Z,77.08
2022-11-06T23:46:17.748Z,77.04
2022-11-06T23:48:19.630Z,77.26
2022-11-06T23:50:20.965Z,77.35
2022-11-06T23:52:21.980Z,76.73
2022-11-06T23:54:23.622Z,75.87
2022-11-06T23:56:25.182Z,76.73
2022-11-06T23:58:26.197Z,77.01
